Time;durP1;ratioP1;P1;durP2;ratioP2;P2;SDS_P1;SDS_P2;PMS_P1;PMS_P2;Temp;Humidity;BMP_temperature;BMP_pressure;BME280_temperature;BME280_humidity;BME280_pressure;Samples;Min_cycle;Max_cycle;Signal;HPM_P1;HPM_P2
2021/05/05 00:01:03;;;;;;;3.80;0.80;;;7.20;99.90;;;;;;5051280;28;20640;-72
2021/05/05 00:03:29;;;;;;;1.60;0.57;;;7.20;99.90;;;;;;5051146;28;20193;-71
2021/05/05 00:05:55;;;;;;;0.50;0.50;;;7.10;99.90;;;;;;5050873;28;20494;-72
2021/05/05 00:08:21;;;;;;;1.20;0.60;;;7.10;99.90;;;;;;5051480;28;20540;-72
2021/05/05 00:10:47;;;;;;;0.80;0.50;;;7.10;99.90;;;;;;5051176;28;20661;-72
2021/05/05 00:13:13;;;;;;;1.07;0.60;;;7.10;99.90;;;;;;5051432;28;20441;-71
2021/05/05 00:15:39;;;;;;;1.10;0.60;;;7.10;99.90;;;;;;5050954;28;20792;-73
2021/05/05 00:18:04;;;;;;;0.60;0.50;;;7.10;99.90;;;;;;5050919;28;20456;-71
2021/05/05 00:20:30;;;;;;;0.87;0.60;;;7.10;99.90;;;;;;5048925;28;20223;-72
2021/05/05 00:22:56;;;;;;;1.70;0.63;;;7.00;99.90;;;;;;5049331;28;20182;-72
2021/05/05 00:25:22;;;;;;;1.47;0.50;;;7.00;99.90;;;;;;5051039;28;20431;-72
2021/05/05 00:27:50;;;;;;;3.27;0.60;;;7.00;99.90;;;;;;5046715;28;20170;-73
2021/05/05 00:30:16;;;;;;;1.27;0.70;;;7.00;99.90;;;;;;5051015;28;20466;-72
2021/05/05 00:32:42;;;;;;;2.13;0.60;;;7.00;99.90;;;;;;5047552;28;20434;-71
2021/05/05 00:35:08;;;;;;;2.10;0.60;;;7.00;99.90;;;;;;5050957;28;20436;-72
2021/05/05 00:37:34;;;;;;;2.33;0.63;;;7.00;99.90;;;;;;5048376;28;20184;-72
2021/05/05 00:39:59;;;;;;;1.40;0.50;;;7.00;99.90;;;;;;5050836;28;20438;-72
2021/05/05 00:42:25;;;;;;;0.70;0.60;;;7.00;99.90;;;;;;5047589;28;20711;-71
2021/05/05 00:44:57;;;;;;;0.83;0.50;;;7.00;99.90;;;;;;5050586;28;20224;-73
2021/05/05 00:47:24;;;;;;;0.80;0.57;;;6.90;99.90;;;;;;5048120;28;20190;-73
2021/05/05 00:49:50;;;;;;;3.93;0.60;;;6.90;99.90;;;;;;5049536;28;20438;-71
2021/05/05 00:52:15;;;;;;;2.20;0.87;;;6.90;99.90;;;;;;5047949;28;20467;-71
2021/05/05 00:54:41;;;;;;;1.03;0.70;;;6.90;99.90;;;;;;5049097;28;20431;-73
2021/05/05 00:57:07;;;;;;;3.37;0.80;;;6.90;99.90;;;;;;5032481;28;20190;-71
2021/05/05 00:59:33;;;;;;;0.93;0.80;;;7.00;99.90;;;;;;5049178;28;20247;-71
2021/05/05 01:01:58;;;;;;;3.17;0.60;;;7.00;99.90;;;;;;5050410;28;20448;-72
2021/05/05 01:04:24;;;;;;;2.93;0.60;;;6.90;99.90;;;;;;5030500;28;20209;-74
2021/05/05 01:06:51;;;;;;;1.77;0.50;;;6.90;99.90;;;;;;5050209;28;20266;-73
2021/05/05 01:09:17;;;;;;;2.93;1.03;;;6.90;99.90;;;;;;5049608;28;20442;-72
2021/05/05 01:11:43;;;;;;;2.60;0.90;;;6.90;99.90;;;;;;5050376;28;20453;-72
2021/05/05 01:14:09;;;;;;;1.10;0.93;;;6.90;99.90;;;;;;5047515;28;20191;-73
2021/05/05 01:16:35;;;;;;;1.93;0.80;;;6.90;99.90;;;;;;5036459;28;20479;-74
2021/05/05 01:19:01;;;;;;;2.50;1.20;;;6.90;99.90;;;;;;5052266;28;20571;-75
2021/05/05 01:21:26;;;;;;;0.80;0.70;;;6.80;99.90;;;;;;5053116;28;21009;-72
2021/05/05 01:23:52;;;;;;;0.83;0.70;;;6.80;99.90;;;;;;5054325;28;20244;-72
2021/05/05 01:26:17;;;;;;;4.30;0.80;;;6.80;99.90;;;;;;5050656;28;20231;-74
2021/05/05 01:28:44;;;;;;;1.07;0.60;;;6.80;99.90;;;;;;5035355;28;20185;-73
2021/05/05 01:31:13;;;;;;;2.50;0.80;;;6.80;99.90;;;;;;5051958;28;20204;-71
2021/05/05 01:33:40;;;;;;;0.80;0.80;;;6.80;99.90;;;;;;5054351;28;20435;-72
2021/05/05 01:36:07;;;;;;;4.80;0.80;;;6.80;99.90;;;;;;5049509;28;20464;-72
2021/05/05 01:38:33;;;;;;;2.73;0.90;;;6.80;99.90;;;;;;5054226;28;20435;-72
2021/05/05 01:40:59;;;;;;;2.73;1.00;;;6.80;99.90;;;;;;5052383;28;20853;-72
2021/05/05 01:43:24;;;;;;;1.13;0.83;;;6.80;99.90;;;;;;5035091;28;20209;-74
2021/05/05 01:45:50;;;;;;;1.73;0.70;;;6.80;99.90;;;;;;5049111;28;20193;-73
2021/05/05 01:48:18;;;;;;;3.80;0.70;;;6.80;99.90;;;;;;5053922;28;20199;-72
2021/05/05 01:50:43;;;;;;;1.60;0.80;;;6.90;99.90;;;;;;5031520;28;20197;-74
2021/05/05 01:53:09;;;;;;;1.17;0.80;;;6.90;99.90;;;;;;5053891;28;20424;-74
2021/05/05 01:55:35;;;;;;;2.03;0.90;;;6.80;99.90;;;;;;5036008;28;20328;-73
2021/05/05 01:58:00;;;;;;;0.70;0.60;;;6.90;99.90;;;;;;5048984;28;20195;-72
2021/05/05 02:00:30;;;;;;;5.30;0.90;;;6.80;99.90;;;;;;5053810;28;20186;-72
2021/05/05 02:02:56;;;;;;;1.50;0.90;;;6.80;99.90;;;;;;5051815;28;20628;-72
2021/05/05 02:05:22;;;;;;;1.10;1.00;;;6.90;99.90;;;;;;5053794;28;20467;-75
2021/05/05 02:07:48;;;;;;;0.80;0.70;;;6.90;99.90;;;;;;5032044;28;20443;-75
2021/05/05 02:10:18;;;;;;;4.80;0.80;;;6.80;99.90;;;;;;5053723;28;20456;-74
2021/05/05 02:12:44;;;;;;;3.03;0.80;;;6.80;99.90;;;;;;5051100;28;20522;-72
2021/05/05 02:15:12;;;;;;;1.33;0.90;;;6.80;99.90;;;;;;5053552;28;20534;-71
2021/05/05 02:17:38;;;;;;;0.77;0.60;;;6.80;99.90;;;;;;5051183;28;20204;-72
2021/05/05 02:20:09;;;;;;;0.87;0.50;;;6.80;99.90;;;;;;5050310;28;20446;-72
2021/05/05 02:22:36;;;;;;;1.87;0.70;;;6.80;99.90;;;;;;5052648;28;20434;-72
2021/05/05 02:25:03;;;;;;;1.80;0.60;;;6.80;99.90;;;;;;5032800;28;20472;-72
2021/05/05 02:27:28;;;;;;;4.77;0.93;;;6.80;99.90;;;;;;5048848;28;20424;-74
2021/05/05 02:29:54;;;;;;;1.37;0.63;;;6.80;99.90;;;;;;5049020;28;20951;-72
2021/05/05 02:32:23;;;;;;;1.17;0.93;;;6.80;99.90;;;;;;5053225;28;20707;-73
2021/05/05 02:34:49;;;;;;;2.30;0.73;;;6.80;99.90;;;;;;5050844;28;20197;-72
2021/05/05 02:37:14;;;;;;;4.93;1.03;;;6.80;99.90;;;;;;5052919;28;20476;-72
2021/05/05 02:39:41;;;;;;;1.43;0.50;;;6.80;99.90;;;;;;5051101;28;20531;-74
2021/05/05 02:42:09;;;;;;;3.27;0.67;;;6.80;99.90;;;;;;5050968;28;20693;-72
2021/05/05 02:44:35;;;;;;;2.10;0.80;;;6.80;99.90;;;;;;5049002;28;20470;-72
2021/05/05 02:47:02;;;;;;;0.90;0.63;;;6.80;99.90;;;;;;5052566;28;20431;-72
2021/05/05 02:49:29;;;;;;;3.63;1.07;;;6.80;99.90;;;;;;5046875;28;20741;-72
2021/05/05 02:51:54;;;;;;;2.30;0.70;;;6.80;99.90;;;;;;5050477;28;21039;-71
2021/05/05 02:54:20;;;;;;;4.63;0.90;;;6.80;99.90;;;;;;5053029;28;20429;-72
2021/05/05 02:56:45;;;;;;;2.40;0.83;;;6.80;99.90;;;;;;5049617;28;20190;-72
2021/05/05 02:59:11;;;;;;;4.30;0.87;;;6.80;99.90;;;;;;5033731;28;20679;-71
2021/05/05 03:01:36;;;;;;;2.53;1.00;;;6.80;99.90;;;;;;5048750;28;20215;-72
2021/05/05 03:04:02;;;;;;;3.13;0.80;;;6.80;99.90;;;;;;5052603;28;20231;-71
2021/05/05 03:06:30;;;;;;;2.00;0.73;;;6.80;99.90;;;;;;5046176;28;20189;-72
2021/05/05 03:08:55;;;;;;;1.03;0.70;;;6.80;99.90;;;;;;5052411;28;20916;-71
2021/05/05 03:11:21;;;;;;;0.57;0.57;;;6.80;99.90;;;;;;5050915;28;20513;-72
2021/05/05 03:13:46;;;;;;;1.57;0.90;;;6.80;99.90;;;;;;5049290;28;20186;-73
2021/05/05 03:16:12;;;;;;;1.20;0.63;;;6.80;99.90;;;;;;5050335;28;20244;-72
2021/05/05 03:18:38;;;;;;;3.17;1.13;;;6.80;99.90;;;;;;5052411;28;20188;-72
2021/05/05 03:21:04;;;;;;;4.50;1.00;;;6.80;99.90;;;;;;5050572;28;20212;-72
2021/05/05 03:23:29;;;;;;;1.57;0.87;;;6.80;99.90;;;;;;5049633;28;20223;-72
2021/05/05 03:25:55;;;;;;;4.33;2.00;;;6.70;99.90;;;;;;5051959;28;20933;-75
2021/05/05 03:28:20;;;;;;;7.80;0.80;;;6.70;99.90;;;;;;5050172;28;20182;-72
2021/05/05 03:30:46;;;;;;;0.80;0.80;;;6.80;99.90;;;;;;5052109;28;20208;-73
2021/05/05 03:33:11;;;;;;;4.53;0.87;;;6.80;99.90;;;;;;5048721;28;20264;-72
2021/05/05 03:35:37;;;;;;;2.33;0.80;;;6.80;99.90;;;;;;5051896;28;20363;-71
2021/05/05 03:38:03;;;;;;;1.83;1.00;;;6.80;99.90;;;;;;5049494;28;20189;-72
2021/05/05 03:40:32;;;;;;;0.70;0.60;;;6.80;99.90;;;;;;5051148;28;20209;-72
2021/05/05 03:42:58;;;;;;;1.43;1.00;;;6.80;99.90;;;;;;5045539;28;20194;-72
2021/05/05 03:45:23;;;;;;;2.27;0.80;;;6.70;99.90;;;;;;5032299;28;20474;-74
2021/05/05 03:47:49;;;;;;;1.10;0.80;;;6.70;99.90;;;;;;5049432;28;20193;-72
2021/05/05 03:50:15;;;;;;;3.03;0.80;;;6.70;99.90;;;;;;5049341;28;20204;-72
2021/05/05 03:52:41;;;;;;;4.00;0.73;;;6.70;99.90;;;;;;5048407;28;20191;-72
2021/05/05 03:55:08;;;;;;;3.23;0.80;;;6.70;99.90;;;;;;5048367;28;20874;-75
2021/05/05 03:57:33;;;;;;;2.00;0.60;;;6.70;99.90;;;;;;5051625;28;20179;-72
2021/05/05 04:00:00;;;;;;;2.50;0.63;;;6.70;99.90;;;;;;5048036;28;20454;-74
2021/05/05 04:02:25;;;;;;;1.20;0.80;;;6.70;99.90;;;;;;5051544;28;20662;-72
2021/05/05 04:04:51;;;;;;;1.03;0.67;;;6.70;99.90;;;;;;5048094;28;20467;-72
2021/05/05 04:07:16;;;;;;;1.37;1.00;;;6.70;99.90;;;;;;5050786;28;20216;-72
2021/05/05 04:09:42;;;;;;;1.30;0.90;;;6.70;99.90;;;;;;5049615;28;20676;-71
2021/05/05 04:12:09;;;;;;;0.83;0.67;;;6.60;99.90;;;;;;5051085;28;20208;-74
2021/05/05 04:14:35;;;;;;;3.60;0.90;;;6.60;99.90;;;;;;5047469;28;21142;-71
2021/05/05 04:17:00;;;;;;;2.93;0.90;;;6.60;99.90;;;;;;5050809;28;20436;-71
2021/05/05 04:19:27;;;;;;;0.77;0.77;;;6.60;99.90;;;;;;5051343;28;20661;-73
2021/05/05 04:21:52;;;;;;;1.17;0.60;;;6.70;99.90;;;;;;5050152;28;20255;-72
2021/05/05 04:24:18;;;;;;;0.70;0.70;;;6.70;99.90;;;;;;5051228;28;21193;-71
2021/05/05 04:26:46;;;;;;;1.13;0.80;;;6.60;99.90;;;;;;5046330;28;20641;-70
2021/05/05 04:29:12;;;;;;;2.90;0.70;;;6.60;99.90;;;;;;5049072;28;20185;-71
2021/05/05 04:31:37;;;;;;;3.33;1.03;;;6.60;99.90;;;;;;5031871;28;20477;-71
2021/05/05 04:34:03;;;;;;;3.17;1.97;;;6.60;99.90;;;;;;5050848;28;20432;-74
2021/05/05 04:36:29;;;;;;;0.60;0.60;;;6.50;99.90;;;;;;5031489;28;20209;-71
2021/05/05 04:38:54;;;;;;;1.90;0.70;;;6.60;99.90;;;;;;5048989;28;20272;-71
2021/05/05 04:41:20;;;;;;;0.60;0.60;;;6.60;99.90;;;;;;5048515;28;20220;-71
2021/05/05 04:43:45;;;;;;;2.40;0.70;;;6.60;99.90;;;;;;5048596;28;20231;-71
2021/05/05 04:46:11;;;;;;;6.33;0.70;;;6.60;99.90;;;;;;5050191;28;20181;-73
2021/05/05 04:48:36;;;;;;;1.73;0.90;;;6.60;99.90;;;;;;5047094;28;20192;-71
2021/05/05 04:51:02;;;;;;;1.10;0.60;;;6.60;99.90;;;;;;5048644;28;20236;-74
2021/05/05 04:53:28;;;;;;;0.70;0.70;;;6.60;99.90;;;;;;5048085;28;20562;-71
2021/05/05 04:55:53;;;;;;;1.77;0.70;;;6.60;99.90;;;;;;5050546;28;20197;-71
2021/05/05 04:58:19;;;;;;;0.60;0.60;;;6.70;99.90;;;;;;5046367;28;20191;-72
2021/05/05 05:00:45;;;;;;;0.70;0.70;;;6.60;99.90;;;;;;5050729;28;20208;-72
2021/05/05 05:03:11;;;;;;;0.90;0.73;;;6.60;99.90;;;;;;5049714;28;20454;-72
2021/05/05 05:05:36;;;;;;;6.13;0.60;;;6.70;99.90;;;;;;5050881;28;20544;-71
2021/05/05 05:08:02;;;;;;;1.40;0.60;;;6.70;99.90;;;;;;5048781;28;20186;-71
2021/05/05 05:10:28;;;;;;;0.73;0.70;;;6.80;99.90;;;;;;5044541;28;20191;-71
2021/05/05 05:12:55;;;;;;;4.20;0.80;;;6.70;99.90;;;;;;5031254;28;20196;-74
2021/05/05 05:15:21;;;;;;;1.83;0.70;;;6.80;99.90;;;;;;5048201;28;20564;-71
2021/05/05 05:17:46;;;;;;;1.67;0.60;;;6.80;99.90;;;;;;5050408;28;20444;-70
2021/05/05 05:20:12;;;;;;;1.77;0.70;;;6.80;99.90;;;;;;5050653;28;20918;-70
2021/05/05 05:22:38;;;;;;;1.40;0.60;;;6.80;99.90;;;;;;5051108;28;20227;-71
2021/05/05 05:25:06;;;;;;;1.60;0.70;;;6.80;99.90;;;;;;5049860;28;20259;-71
2021/05/05 05:27:31;;;;;;;4.33;0.70;;;6.80;99.90;;;;;;5050497;28;20547;-71
2021/05/05 05:29:58;;;;;;;1.13;0.70;;;6.80;99.90;;;;;;5048562;28;20447;-72
2021/05/05 05:32:23;;;;;;;2.57;0.80;;;6.80;99.90;;;;;;5050479;28;20253;-71
2021/05/05 05:34:49;;;;;;;1.30;0.50;;;6.80;99.90;;;;;;5031247;28;20937;-71
2021/05/05 05:37:15;;;;;;;0.80;0.70;;;6.80;99.90;;;;;;5050461;28;20189;-70
2021/05/05 05:39:41;;;;;;;0.50;0.50;;;6.90;99.90;;;;;;5049307;28;20190;-72
2021/05/05 05:42:06;;;;;;;0.60;0.60;;;7.00;99.90;;;;;;5045747;28;20209;-71
2021/05/05 05:44:32;;;;;;;7.67;0.83;;;7.00;99.90;;;;;;5048873;28;20472;-71
2021/05/05 05:46:57;;;;;;;1.70;0.93;;;7.10;99.90;;;;;;5046471;28;20245;-73
2021/05/05 05:49:23;;;;;;;1.03;0.70;;;7.20;99.90;;;;;;5050699;28;20179;-71
2021/05/05 05:51:49;;;;;;;3.40;0.67;;;7.20;99.90;;;;;;5044747;28;20232;-71
2021/05/05 05:54:14;;;;;;;5.03;0.93;;;7.30;99.90;;;;;;5050627;28;20197;-70
2021/05/05 05:56:40;;;;;;;1.83;0.80;;;7.30;99.90;;;;;;5047967;28;20197;-71
2021/05/05 05:59:05;;;;;;;4.20;1.00;;;7.30;99.90;;;;;;5049615;28;20321;-70
2021/05/05 06:01:31;;;;;;;2.87;1.17;;;7.30;99.90;;;;;;5051396;28;20292;-72
2021/05/05 06:03:56;;;;;;;3.93;0.90;;;7.40;99.90;;;;;;5050867;28;20207;-70
2021/05/05 06:06:22;;;;;;;3.53;1.13;;;7.50;99.90;;;;;;5051713;28;20698;-71
2021/05/05 06:08:47;;;;;;;2.17;1.10;;;7.60;99.90;;;;;;5053499;28;20200;-72
2021/05/05 06:11:13;;;;;;;3.57;1.13;;;7.60;99.90;;;;;;5053037;28;20223;-69
2021/05/05 06:13:39;;;;;;;1.90;0.70;;;7.60;99.90;;;;;;5051199;28;20263;-72
2021/05/05 06:16:05;;;;;;;2.40;1.00;;;7.60;99.90;;;;;;5053185;28;20190;-72
2021/05/05 06:18:31;;;;;;;2.67;0.90;;;7.70;99.90;;;;;;5051521;28;20226;-72
2021/05/05 06:20:56;;;;;;;2.60;1.00;;;7.70;99.90;;;;;;5035616;28;20454;-71
2021/05/05 06:23:22;;;;;;;2.40;1.00;;;7.70;99.90;;;;;;5049648;28;20551;-72
2021/05/05 06:25:48;;;;;;;3.70;1.03;;;7.80;99.90;;;;;;5052257;28;20190;-73
2021/05/05 06:28:13;;;;;;;5.77;1.10;;;8.20;99.90;;;;;;5049571;28;20458;-70
2021/05/05 06:30:39;;;;;;;4.07;1.30;;;8.50;99.90;;;;;;5035210;28;20200;-70
2021/05/05 06:33:04;;;;;;;2.03;1.10;;;9.20;99.90;;;;;;5051107;28;20188;-72
2021/05/05 06:35:30;;;;;;;4.77;1.70;;;9.50;99.90;;;;;;5050972;28;20187;-72
2021/05/05 06:37:55;;;;;;;1.87;0.83;;;9.80;99.90;;;;;;5050951;28;20182;-72
2021/05/05 06:40:21;;;;;;;2.57;1.93;;;9.70;99.90;;;;;;5053286;28;20566;-72
2021/05/05 06:42:47;;;;;;;7.03;1.57;;;9.60;99.90;;;;;;5051507;28;20602;-71
2021/05/05 06:45:13;;;;;;;1.80;1.10;;;9.40;99.90;;;;;;5050292;28;20235;-71
2021/05/05 06:47:39;;;;;;;3.47;1.30;;;9.30;99.90;;;;;;5052624;28;20181;-72
2021/05/05 06:50:06;;;;;;;4.07;1.47;;;9.30;99.90;;;;;;5033438;28;20433;-72
2021/05/05 06:52:31;;;;;;;1.83;1.10;;;9.80;99.90;;;;;;5048625;28;20694;-71
2021/05/05 06:54:57;;;;;;;5.43;1.17;;;9.80;99.90;;;;;;5048814;28;20439;-72
2021/05/05 06:57:22;;;;;;;4.93;1.80;;;9.90;99.90;;;;;;5052404;28;20241;-71
2021/05/05 06:59:48;;;;;;;5.43;1.37;;;10.00;99.90;;;;;;5032231;28;20191;-72
2021/05/05 07:02:13;;;;;;;4.80;1.40;;;10.10;99.90;;;;;;5052925;28;20202;-71
2021/05/05 07:04:39;;;;;;;2.63;1.50;;;10.20;99.90;;;;;;5045800;28;20204;-71
2021/05/05 07:07:04;;;;;;;1.47;0.80;;;10.30;99.90;;;;;;5052323;28;20245;-71
2021/05/05 07:09:30;;;;;;;1.70;1.27;;;10.30;99.90;;;;;;5052655;28;20182;-71
2021/05/05 07:11:55;;;;;;;4.77;1.80;;;10.20;99.90;;;;;;5050492;28;20203;-71
2021/05/05 07:14:21;;;;;;;5.80;1.50;;;10.20;99.90;;;;;;5048462;28;20203;-72
2021/05/05 07:16:46;;;;;;;6.57;1.30;;;10.70;99.90;;;;;;5049628;28;20549;-71
2021/05/05 07:19:12;;;;;;;5.77;1.47;;;11.10;99.90;;;;;;5051049;28;20183;-71
2021/05/05 07:21:37;;;;;;;6.13;1.20;;;11.40;99.90;;;;;;5050866;28;20196;-72
2021/05/05 07:24:03;;;;;;;2.20;1.40;;;11.80;99.90;;;;;;5052248;28;20671;-72
2021/05/05 07:26:29;;;;;;;8.83;1.13;;;11.60;99.90;;;;;;5050138;28;20177;-72
2021/05/05 07:28:56;;;;;;;4.80;1.63;;;11.30;99.90;;;;;;5046156;28;20180;-72
2021/05/05 07:31:22;;;;;;;4.20;1.83;;;11.10;99.90;;;;;;5050124;28;20322;-71
2021/05/05 07:33:50;;;;;;;4.40;0.80;;;11.10;99.90;;;;;;5051753;28;20943;-71
2021/05/05 07:36:20;;;;;;;4.50;1.17;;;11.40;99.90;;;;;;5051670;28;20901;-70
2021/05/05 07:38:56;;;;;;;6.00;1.47;;;11.70;99.90;;;;;;5048642;28;20443;-72
2021/05/05 07:49:26;;;;;;;5.17;1.00;;;11.50;99.90;;;;;;5049318;28;20533;-72
2021/05/05 07:51:52;;;;;;;3.07;1.30;;;11.80;99.90;;;;;;5047881;28;20454;-71
2021/05/05 07:54:19;;;;;;;2.87;0.90;;;11.70;99.90;;;;;;5046439;28;20470;-72
2021/05/05 07:56:45;;;;;;;2.33;0.90;;;11.60;99.90;;;;;;5048100;28;20428;-71
2021/05/05 07:59:12;;;;;;;4.77;0.90;;;11.00;99.90;;;;;;5051363;28;20429;-72
2021/05/05 08:01:38;;;;;;;7.77;1.43;;;11.30;99.90;;;;;;5051515;28;20559;-71
2021/05/05 08:04:05;;;;;;;5.13;1.23;;;11.90;99.90;;;;;;5051163;28;20844;-71
2021/05/05 08:06:30;;;;;;;3.17;0.90;;;12.40;99.90;;;;;;5051332;28;20416;-72
2021/05/05 08:08:56;;;;;;;4.43;1.00;;;12.80;99.90;;;;;;5051506;28;20419;-71
2021/05/05 08:11:23;;;;;;;4.10;1.50;;;13.20;99.90;;;;;;5051560;28;20197;-72
2021/05/05 08:13:48;;;;;;;1.60;1.20;;;13.60;99.90;;;;;;5033531;28;20950;-72
2021/05/05 08:16:16;;;;;;;3.03;1.20;;;13.60;99.90;;;;;;5051264;28;20428;-71
2021/05/05 08:18:41;;;;;;;2.13;1.37;;;12.50;99.90;;;;;;5051358;28;20227;-72
2021/05/05 08:21:08;;;;;;;3.30;1.47;;;11.80;99.90;;;;;;5051147;28;20447;-72
2021/05/05 08:23:38;;;;;;;1.67;1.50;;;11.30;99.90;;;;;;5050791;28;20184;-71
2021/05/05 08:26:04;;;;;;;2.67;1.70;;;11.10;99.90;;;;;;5051722;28;20506;-71
2021/05/05 08:28:30;;;;;;;6.00;1.47;;;12.00;99.90;;;;;;5051145;28;20416;-71
2021/05/05 08:30:57;;;;;;;4.03;1.17;;;12.40;99.90;;;;;;5051154;28;20465;-71
2021/05/05 08:33:23;;;;;;;4.03;1.33;;;12.80;99.90;;;;;;5050661;28;20424;-71
2021/05/05 08:35:49;;;;;;;7.70;1.40;;;12.50;99.90;;;;;;5050509;28;20510;-72
2021/05/05 08:38:15;;;;;;;3.43;1.17;;;12.00;99.90;;;;;;5050869;28;20436;-72
2021/05/05 08:40:40;;;;;;;7.97;4.20;;;12.20;99.90;;;;;;5050797;28;20223;-72
2021/05/05 08:43:06;;;;;;;4.30;1.67;;;12.80;99.90;;;;;;5032874;28;20174;-71
2021/05/05 08:45:32;;;;;;;2.07;1.23;;;13.60;99.90;;;;;;5051188;28;20205;-72
2021/05/05 08:48:03;;;;;;;4.30;1.10;;;14.20;99.90;;;;;;5052016;28;20174;-71
2021/05/05 08:50:32;;;;;;;1.87;0.90;;;14.80;99.90;;;;;;5046908;28;20758;-72
2021/05/05 08:52:58;;;;;;;3.30;1.03;;;15.10;99.90;;;;;;5050551;28;20418;-71
2021/05/05 08:55:26;;;;;;;7.23;1.30;;;14.50;99.90;;;;;;5051141;28;20561;-72
2021/05/05 08:57:52;;;;;;;4.30;0.90;;;14.60;99.90;;;;;;5050556;28;20420;-71
2021/05/05 09:00:24;;;;;;;1.57;1.27;;;14.10;99.90;;;;;;5033086;28;20428;-73
2021/05/05 09:02:49;;;;;;;1.50;0.90;;;14.40;99.90;;;;;;5050611;28;20454;-74
2021/05/05 09:05:16;;;;;;;7.13;1.20;;;14.60;99.90;;;;;;5050508;28;20966;-72
2021/05/05 09:07:43;;;;;;;1.63;1.00;;;15.00;99.90;;;;;;5050148;28;20173;-74
2021/05/05 09:10:23;;;;;;;4.73;1.23;;;15.30;99.90;;;;;;5050495;28;20494;-73
2021/05/05 09:12:52;;;;;;;4.57;1.00;;;15.60;99.90;;;;;;5050323;28;20549;-72
2021/05/05 09:15:23;;;;;;;3.10;0.73;;;15.40;99.90;;;;;;5016643;28;20443;-74
2021/05/05 09:17:55;;;;;;;4.10;0.87;;;15.30;99.90;;;;;;5048852;28;20422;-73
2021/05/05 09:20:28;;;;;;;1.77;0.87;;;16.00;99.90;;;;;;5050347;28;20411;-73
2021/05/05 09:22:56;;;;;;;2.50;0.97;;;16.10;99.90;;;;;;5050161;28;20938;-73
2021/05/05 09:25:29;;;;;;;2.40;0.83;;;16.50;99.90;;;;;;5050141;28;20494;-73
2021/05/05 09:28:17;;;;;;;5.60;0.90;;;16.60;99.90;;;;;;5049831;28;20408;-74
2021/05/05 09:30:49;;;;;;;5.07;1.53;;;16.90;99.90;;;;;;5048050;28;20473;-74
2021/05/05 09:33:45;;;;;;;2.70;1.13;;;16.90;99.90;;;;;;5050172;28;20938;-73
2021/05/05 09:36:17;;;;;;;5.43;1.87;;;17.20;99.90;;;;;;5048898;28;20489;-73
2021/05/05 09:38:49;;;;;;;1.43;1.00;;;16.70;99.90;;;;;;5054106;28;20790;-73
2021/05/05 09:41:20;;;;;;;3.47;1.03;;;17.00;99.90;;;;;;5036454;28;20466;-73
2021/05/05 09:43:46;;;;;;;1.80;0.80;;;17.00;99.90;;;;;;5054086;28;20589;-73
2021/05/05 09:46:40;;;;;;;4.30;1.10;;;17.20;98.80;;;;;;5054055;28;20462;-73
2021/05/05 09:49:16;;;;;;;2.50;1.23;;;17.00;99.50;;;;;;5051262;28;20186;-74
2021/05/05 09:51:45;;;;;;;3.57;1.23;;;17.20;98.20;;;;;;5052595;28;20439;-73
2021/05/05 09:54:23;;;;;;;7.10;1.10;;;17.10;97.70;;;;;;5053805;28;20438;-74
2021/05/05 09:56:49;;;;;;;1.60;0.90;;;17.20;97.00;;;;;;5052232;28;20415;-74
2021/05/05 09:59:14;;;;;;;1.57;0.90;;;16.30;97.20;;;;;;5053484;28;20448;-73
2021/05/05 10:01:40;;;;;;;2.23;1.00;;;16.00;97.80;;;;;;5052699;28;20200;-73
2021/05/05 10:04:07;;;;;;;3.37;1.10;;;16.10;96.00;;;;;;5053518;28;20259;-73
2021/05/05 10:06:36;;;;;;;2.50;0.80;;;16.30;98.10;;;;;;5053323;28;20171;-72
2021/05/05 10:09:08;;;;;;;4.13;1.00;;;16.10;95.20;;;;;;5053355;28;20450;-73
2021/05/05 10:11:36;;;;;;;3.53;1.40;;;16.00;95.40;;;;;;5053420;28;20439;-73
2021/05/05 10:14:12;;;;;;;1.20;0.97;;;15.70;94.20;;;;;;5053039;28;21228;-74
2021/05/05 10:16:40;;;;;;;1.83;0.90;;;16.30;96.50;;;;;;5053061;28;20426;-74
2021/05/05 10:19:08;;;;;;;3.40;0.87;;;16.60;96.70;;;;;;5053208;28;20488;-74
2021/05/05 10:21:39;;;;;;;9.00;1.60;;;16.50;94.70;;;;;;5051543;28;20470;-72
2021/05/05 10:24:06;;;;;;;2.67;1.00;;;16.00;95.10;;;;;;5050382;28;20499;-73
2021/05/05 10:26:32;;;;;;;3.10;0.90;;;15.90;94.50;;;;;;5034904;28;20511;-73
2021/05/05 10:28:58;;;;;;;2.00;0.80;;;15.80;94.60;;;;;;5053103;28;20507;-72
2021/05/05 10:31:27;;;;;;;1.73;1.20;;;14.70;95.00;;;;;;5053036;28;20193;-73
2021/05/05 10:33:57;;;;;;;5.13;1.10;;;14.20;96.00;;;;;;5052843;28;20193;-72
2021/05/05 10:36:33;;;;;;;2.87;0.90;;;14.20;98.10;;;;;;5052473;28;20412;-75
2021/05/05 10:39:01;;;;;;;0.93;0.83;;;14.40;98.40;;;;;;5031671;28;20439;-75
2021/05/05 10:41:27;;;;;;;13.13;1.93;;;14.10;98.90;;;;;;5049076;28;20470;-74
2021/05/05 10:43:56;;;;;;;2.40;1.13;;;13.60;97.70;;;;;;5034842;28;20479;-72
2021/05/05 10:46:35;;;;;;;11.63;0.80;;;13.30;97.90;;;;;;5051949;28;20441;-73
2021/05/05 10:49:12;;;;;;;0.90;0.50;;;12.00;99.90;;;;;;5031531;28;20419;-73
2021/05/05 10:51:49;;;;;;;0.50;0.50;;;10.90;99.90;;;;;;5052611;28;20506;-75
2021/05/05 10:54:20;;;;;;;1.80;0.60;;;9.60;99.90;;;;;;5051909;28;20455;-71
2021/05/05 10:57:11;;;;;;;0.50;0.50;;;8.20;99.90;;;;;;5030934;28;20490;-71
2021/05/05 11:00:08;;;;;;;0.60;0.60;;;7.70;99.90;;;;;;5050872;28;20426;-69
2021/05/05 11:05:12;;;;;;;2.80;0.70;;;6.80;99.90;;;;;;5048160;28;20557;-71
2021/05/05 11:07:54;;;;;;;2.83;0.80;;;6.50;99.90;;;;;;5052961;28;20802;-72
2021/05/05 11:10:32;;;;;;;0.67;0.67;;;6.30;99.90;;;;;;5052312;28;20432;-71
2021/05/05 11:13:21;;;;;;;1.00;0.90;;;6.30;99.90;;;;;;5030670;28;20547;-72
2021/05/05 11:15:47;;;;;;;2.30;0.60;;;6.50;99.90;;;;;;5047099;28;21013;-71
2021/05/05 11:18:28;;;;;;;1.63;0.70;;;6.70;99.90;;;;;;5034083;28;20417;-72
2021/05/05 11:21:07;;;;;;;1.80;0.60;;;7.30;99.90;;;;;;5052077;28;20702;-71
2021/05/05 11:26:31;;;;;;;1.70;0.60;;;7.90;99.90;;;;;;5051872;28;20781;-71
2021/05/05 11:29:11;;;;;;;0.60;0.60;;;8.40;99.90;;;;;;5044337;28;20422;-72
2021/05/05 11:31:46;;;;;;;1.33;0.60;;;9.10;99.90;;;;;;5049769;28;20461;-72
2021/05/05 11:34:18;;;;;;;2.00;0.70;;;9.70;99.90;;;;;;5052047;28;20420;-72
2021/05/05 11:36:50;;;;;;;1.10;1.00;;;9.80;99.90;;;;;;5051711;28;20419;-72
2021/05/05 11:39:27;;;;;;;2.43;0.77;;;10.10;99.90;;;;;;5051876;28;20785;-71
2021/05/05 11:42:01;;;;;;;0.70;0.70;;;10.00;99.90;;;;;;5050401;28;20825;-72
2021/05/05 11:44:35;;;;;;;4.43;0.80;;;10.40;99.90;;;;;;5046706;28;20988;-71
2021/05/05 11:47:08;;;;;;;1.20;0.70;;;10.60;99.90;;;;;;5047713;28;20468;-72
2021/05/05 11:49:36;;;;;;;2.93;0.87;;;10.80;99.90;;;;;;5052024;28;20412;-73
2021/05/05 11:52:22;;;;;;;2.53;0.80;;;10.80;99.90;;;;;;5033581;28;20446;-71
2021/05/05 11:54:56;;;;;;;1.40;0.97;;;10.80;99.90;;;;;;5052414;28;20503;-72
2021/05/05 11:57:22;;;;;;;1.20;0.60;;;10.80;99.90;;;;;;5051648;28;20938;-70
2021/05/05 11:59:47;;;;;;;1.07;0.80;;;10.80;99.90;;;;;;5051424;28;20433;-71
2021/05/05 12:02:16;;;;;;;2.60;1.20;;;10.80;99.90;;;;;;5033606;28;20447;-71
2021/05/05 12:04:42;;;;;;;0.63;0.63;;;10.80;99.90;;;;;;5033652;28;20207;-71
2021/05/05 12:07:10;;;;;;;2.10;0.87;;;11.20;99.90;;;;;;5051264;28;20828;-71
2021/05/05 12:09:41;;;;;;;1.70;0.87;;;11.30;99.90;;;;;;5051084;28;20422;-71
2021/05/05 12:12:12;;;;;;;1.03;0.90;;;11.50;99.90;;;;;;5051242;28;20468;-71
2021/05/05 12:14:38;;;;;;;1.13;0.70;;;11.50;99.90;;;;;;5051357;28;20426;-71
2021/05/05 12:17:14;;;;;;;0.80;0.80;;;11.40;99.90;;;;;;5050770;28;20427;-72
2021/05/05 12:19:39;;;;;;;1.67;1.10;;;11.30;99.90;;;;;;5051095;28;20425;-73
2021/05/05 12:22:12;;;;;;;0.90;0.90;;;11.30;99.90;;;;;;5051009;28;20447;-71
2021/05/05 12:24:38;;;;;;;2.03;1.00;;;11.20;99.90;;;;;;5051231;28;20254;-72
2021/05/05 12:27:07;;;;;;;4.10;1.30;;;11.20;99.90;;;;;;5051066;28;20851;-71
2021/05/05 12:29:33;;;;;;;1.30;0.90;;;11.20;99.90;;;;;;5051190;28;20173;-71
2021/05/05 12:31:59;;;;;;;0.70;0.70;;;11.20;99.90;;;;;;5050892;28;20443;-72
2021/05/05 12:34:25;;;;;;;2.40;0.77;;;11.30;99.90;;;;;;5050630;28;20694;-73
2021/05/05 12:36:53;;;;;;;0.80;0.80;;;11.20;99.90;;;;;;5050396;28;20677;-71
2021/05/05 12:39:19;;;;;;;1.30;0.70;;;11.20;99.90;;;;;;5050870;28;20517;-73
2021/05/05 12:41:52;;;;;;;1.07;0.60;;;10.90;99.90;;;;;;5050633;28;20515;-72
2021/05/05 12:44:19;;;;;;;3.63;0.80;;;10.70;99.90;;;;;;5051094;28;21015;-72
2021/05/05 12:46:55;;;;;;;7.00;0.70;;;10.30;99.90;;;;;;5050392;28;20422;-71
2021/05/05 12:49:31;;;;;;;0.70;0.70;;;10.10;99.90;;;;;;5033088;28;20450;-71
2021/05/05 12:51:57;;;;;;;1.73;0.70;;;9.80;99.90;;;;;;5046586;28;20508;-72
2021/05/05 12:54:26;;;;;;;0.70;0.70;;;9.80;99.90;;;;;;5032914;28;20412;-71
2021/05/05 12:56:53;;;;;;;2.20;0.60;;;10.20;99.90;;;;;;5050362;28;20265;-73
2021/05/05 12:59:32;;;;;;;0.50;0.40;;;10.50;99.90;;;;;;5050689;28;20451;-72
2021/05/05 13:02:11;;;;;;;0.60;0.60;;;10.80;99.90;;;;;;5046650;28;20546;-71
2021/05/05 13:04:39;;;;;;;1.27;0.50;;;11.10;99.90;;;;;;5048294;28;20504;-71
2021/05/05 13:07:06;;;;;;;0.70;0.70;;;11.40;99.90;;;;;;5050100;28;20924;-71
2021/05/05 13:09:33;;;;;;;1.37;0.70;;;11.50;99.90;;;;;;5052355;28;20423;-72